sensor_id;sensor_type;location;lat;lon;timestamp;temperature;humidity
66610;DHT22;53468;48.276;14.416;2024-03-06T00:00:14;4.80;93.20
66610;DHT22;53468;48.276;14.416;2024-03-06T00:05:16;4.90;93.40
66610;DHT22;53468;48.276;14.416;2024-03-06T00:10:18;4.90;92.70
66610;DHT22;53468;48.276;14.416;2024-03-06T00:15:22;4.80;92.80
66610;DHT22;53468;48.276;14.416;2024-03-06T00:20:24;4.90;92.40
66610;DHT22;53468;48.276;14.416;2024-03-06T00:25:26;4.80;92.20
66610;DHT22;53468;48.276;14.416;2024-03-06T00:30:29;4.80;92.30
66610;DHT22;53468;48.276;14.416;2024-03-06T00:35:31;4.80;92.60
66610;DHT22;53468;48.276;14.416;2024-03-06T00:40:33;4.70;92.60
66610;DHT22;53468;48.276;14.416;2024-03-06T00:45:37;4.80;92.70
66610;DHT22;53468;48.276;14.416;2024-03-06T00:50:39;4.70;92.80
66610;DHT22;53468;48.276;14.416;2024-03-06T00:55:41;4.70;92.50
66610;DHT22;53468;48.276;14.416;2024-03-06T01:00:44;4.70;92.90
66610;DHT22;53468;48.276;14.416;2024-03-06T01:05:46;4.70;92.60
66610;DHT22;53468;48.276;14.416;2024-03-06T01:10:48;4.60;92.40
66610;DHT22;53468;48.276;14.416;2024-03-06T01:15:52;4.50;92.20
66610;DHT22;53468;48.276;14.416;2024-03-06T01:20:54;4.30;92.30
66610;DHT22;53468;48.276;14.416;2024-03-06T01:25:56;4.30;92.40
66610;DHT22;53468;48.276;14.416;2024-03-06T01:31:00;4.20;92.40
66610;DHT22;53468;48.276;14.416;2024-03-06T01:36:02;4.10;92.40
66610;DHT22;53468;48.276;14.416;2024-03-06T01:41:05;4.00;92.10
66610;DHT22;53468;48.276;14.416;2024-03-06T01:46:09;3.90;92.40
66610;DHT22;53468;48.276;14.416;2024-03-06T01:51:11;3.80;92.20
66610;DHT22;53468;48.276;14.416;2024-03-06T01:56:13;3.70;92.70
66610;DHT22;53468;48.276;14.416;2024-03-06T02:01:20;3.70;92.60
66610;DHT22;53468;48.276;14.416;2024-03-06T02:06:23;3.70;92.80
66610;DHT22;53468;48.276;14.416;2024-03-06T02:11:25;3.70;93.50
66610;DHT22;53468;48.276;14.416;2024-03-06T02:16:28;3.90;94.30
66610;DHT22;53468;48.276;14.416;2024-03-06T02:21:32;4.00;94.30
66610;DHT22;53468;48.276;14.416;2024-03-06T02:26:37;4.00;94.00
66610;DHT22;53468;48.276;14.416;2024-03-06T02:31:39;4.10;93.90
66610;DHT22;53468;48.276;14.416;2024-03-06T02:36:43;4.10;93.80
66610;DHT22;53468;48.276;14.416;2024-03-06T02:41:45;4.10;93.90
66610;DHT22;53468;48.276;14.416;2024-03-06T02:46:47;4.10;93.70
66610;DHT22;53468;48.276;14.416;2024-03-06T02:51:51;4.10;93.70
66610;DHT22;53468;48.276;14.416;2024-03-06T02:56:55;4.00;92.80
66610;DHT22;53468;48.276;14.416;2024-03-06T03:01:57;3.90;92.80
66610;DHT22;53468;48.276;14.416;2024-03-06T03:07:00;3.70;92.80
66610;DHT22;53468;48.276;14.416;2024-03-06T03:12:02;3.60;93.10
66610;DHT22;53468;48.276;14.416;2024-03-06T03:17:04;3.70;93.60
66610;DHT22;53468;48.276;14.416;2024-03-06T03:22:08;3.60;93.60
66610;DHT22;53468;48.276;14.416;2024-03-06T03:27:10;3.60;93.60
66610;DHT22;53468;48.276;14.416;2024-03-06T03:32:13;3.50;93.20
66610;DHT22;53468;48.276;14.416;2024-03-06T03:37:18;3.40;93.20
66610;DHT22;53468;48.276;14.416;2024-03-06T03:42:20;3.30;92.60
66610;DHT22;53468;48.276;14.416;2024-03-06T03:47:22;3.20;93.10
66610;DHT22;53468;48.276;14.416;2024-03-06T03:52:26;3.20;93.30
66610;DHT22;53468;48.276;14.416;2024-03-06T03:57:28;3.10;92.80
66610;DHT22;53468;48.276;14.416;2024-03-06T04:02:31;3.00;93.10
66610;DHT22;53468;48.276;14.416;2024-03-06T04:07:35;3.00;93.50
66610;DHT22;53468;48.276;14.416;2024-03-06T04:12:38;3.00;93.70
66610;DHT22;53468;48.276;14.416;2024-03-06T04:17:40;3.00;93.70
66610;DHT22;53468;48.276;14.416;2024-03-06T04:22:45;3.00;93.60
66610;DHT22;53468;48.276;14.416;2024-03-06T04:27:48;3.00;93.40
66610;DHT22;53468;48.276;14.416;2024-03-06T04:32:50;2.90;93.60
66610;DHT22;53468;48.276;14.416;2024-03-06T04:37:53;2.90;93.90
66610;DHT22;53468;48.276;14.416;2024-03-06T04:42:56;2.90;94.00
66610;DHT22;53468;48.276;14.416;2024-03-06T04:47:58;3.10;94.70
66610;DHT22;53468;48.276;14.416;2024-03-06T04:53:01;3.30;95.50
66610;DHT22;53468;48.276;14.416;2024-03-06T04:58:04;3.60;95.90
66610;DHT22;53468;48.276;14.416;2024-03-06T05:03:06;3.80;95.90
66610;DHT22;53468;48.276;14.416;2024-03-06T05:08:09;4.00;95.30
66610;DHT22;53468;48.276;14.416;2024-03-06T05:13:11;4.00;94.70
66610;DHT22;53468;48.276;14.416;2024-03-06T05:18:13;4.10;94.60
66610;DHT22;53468;48.276;14.416;2024-03-06T05:23:16;4.10;94.50
66610;DHT22;53468;48.276;14.416;2024-03-06T05:28:19;4.10;94.30
66610;DHT22;53468;48.276;14.416;2024-03-06T05:33:21;4.10;94.00
66610;DHT22;53468;48.276;14.416;2024-03-06T05:38:24;4.10;94.10
66610;DHT22;53468;48.276;14.416;2024-03-06T05:43:26;4.20;94.10
66610;DHT22;53468;48.276;14.416;2024-03-06T05:48:29;4.20;94.00
66610;DHT22;53468;48.276;14.416;2024-03-06T05:53:36;4.30;94.00
66610;DHT22;53468;48.276;14.416;2024-03-06T05:58:38;4.30;93.90
66610;DHT22;53468;48.276;14.416;2024-03-06T06:03:40;4.40;93.90
66610;DHT22;53468;48.276;14.416;2024-03-06T06:08:44;4.50;93.90
66610;DHT22;53468;48.276;14.416;2024-03-06T06:13:46;4.60;94.20
66610;DHT22;53468;48.276;14.416;2024-03-06T06:18:48;4.70;93.70
66610;DHT22;53468;48.276;14.416;2024-03-06T06:23:51;4.80;93.50
66610;DHT22;53468;48.276;14.416;2024-03-06T06:28:53;4.90;93.50
66610;DHT22;53468;48.276;14.416;2024-03-06T06:33:55;5.10;93.30
66610;DHT22;53468;48.276;14.416;2024-03-06T06:38:59;5.20;92.90
66610;DHT22;53468;48.276;14.416;2024-03-06T06:44:01;5.30;92.50
66610;DHT22;53468;48.276;14.416;2024-03-06T06:49:04;5.40;92.20
66610;DHT22;53468;48.276;14.416;2024-03-06T06:54:07;5.50;92.10
66610;DHT22;53468;48.276;14.416;2024-03-06T06:59:09;5.60;92.20
66610;DHT22;53468;48.276;14.416;2024-03-06T07:04:13;5.70;92.10
66610;DHT22;53468;48.276;14.416;2024-03-06T07:09:19;5.80;91.50
66610;DHT22;53468;48.276;14.416;2024-03-06T07:14:21;6.00;91.50
66610;DHT22;53468;48.276;14.416;2024-03-06T07:19:23;6.00;92.00
66610;DHT22;53468;48.276;14.416;2024-03-06T07:24:26;6.20;91.50
66610;DHT22;53468;48.276;14.416;2024-03-06T07:29:29;6.40;91.40
66610;DHT22;53468;48.276;14.416;2024-03-06T07:34:31;6.40;91.10
66610;DHT22;53468;48.276;14.416;2024-03-06T07:39:34;6.60;90.80
66610;DHT22;53468;48.276;14.416;2024-03-06T07:44:36;6.70;90.50
66610;DHT22;53468;48.276;14.416;2024-03-06T07:49:38;6.80;90.50
66610;DHT22;53468;48.276;14.416;2024-03-06T07:54:42;6.90;91.00
66610;DHT22;53468;48.276;14.416;2024-03-06T07:59:44;7.10;90.40
66610;DHT22;53468;48.276;14.416;2024-03-06T08:04:46;7.20;90.30
66610;DHT22;53468;48.276;14.416;2024-03-06T08:09:49;7.30;89.80
66610;DHT22;53468;48.276;14.416;2024-03-06T08:14:51;7.40;89.80
66610;DHT22;53468;48.276;14.416;2024-03-06T08:19:55;7.50;88.80
66610;DHT22;53468;48.276;14.416;2024-03-06T08:24:58;7.60;86.70
66610;DHT22;53468;48.276;14.416;2024-03-06T08:30:00;7.70;87.90
66610;DHT22;53468;48.276;14.416;2024-03-06T08:35:05;7.70;87.80
66610;DHT22;53468;48.276;14.416;2024-03-06T08:40:10;7.80;87.90
66610;DHT22;53468;48.276;14.416;2024-03-06T08:45:15;7.90;88.10
66610;DHT22;53468;48.276;14.416;2024-03-06T08:50:17;7.90;88.50
66610;DHT22;53468;48.276;14.416;2024-03-06T08:55:21;8.00;89.90
66610;DHT22;53468;48.276;14.416;2024-03-06T09:00:24;8.10;89.90
66610;DHT22;53468;48.276;14.416;2024-03-06T09:15:51;8.10;88.30
66610;DHT22;53468;48.276;14.416;2024-03-06T09:20:53;8.20;89.10
66610;DHT22;53468;48.276;14.416;2024-03-06T09:31:07;8.20;88.20
66610;DHT22;53468;48.276;14.416;2024-03-06T09:36:10;8.30;87.50
66610;DHT22;53468;48.276;14.416;2024-03-06T09:46:26;8.30;86.70
66610;DHT22;53468;48.276;14.416;2024-03-06T09:51:29;8.40;86.10
66610;DHT22;53468;48.276;14.416;2024-03-06T09:56:31;8.60;86.10
66610;DHT22;53468;48.276;14.416;2024-03-06T10:01:36;8.80;85.90
66610;DHT22;53468;48.276;14.416;2024-03-06T10:06:41;8.90;84.50
66610;DHT22;53468;48.276;14.416;2024-03-06T10:16:57;9.00;78.30
66610;DHT22;53468;48.276;14.416;2024-03-06T10:27:15;9.20;78.90
66610;DHT22;53468;48.276;14.416;2024-03-06T10:32:19;9.20;77.40
66610;DHT22;53468;48.276;14.416;2024-03-06T10:37:22;9.30;76.30
66610;DHT22;53468;48.276;14.416;2024-03-06T10:42:31;9.60;76.70
66610;DHT22;53468;48.276;14.416;2024-03-06T10:47:46;9.80;73.60
66610;DHT22;53468;48.276;14.416;2024-03-06T10:52:53;9.90;72.50
66610;DHT22;53468;48.276;14.416;2024-03-06T11:03:09;10.30;72.40
66610;DHT22;53468;48.276;14.416;2024-03-06T11:08:13;10.50;71.10
66610;DHT22;53468;48.276;14.416;2024-03-06T11:13:22;10.60;68.70
66610;DHT22;53468;48.276;14.416;2024-03-06T11:18:45;10.80;70.20
66610;DHT22;53468;48.276;14.416;2024-03-06T11:24:20;11.00;70.60
66610;DHT22;53468;48.276;14.416;2024-03-06T11:29:23;11.20;68.30
66610;DHT22;53468;48.276;14.416;2024-03-06T11:34:29;11.20;66.60
66610;DHT22;53468;48.276;14.416;2024-03-06T11:44:53;11.50;66.50
66610;DHT22;53468;48.276;14.416;2024-03-06T11:49:57;11.70;67.60
66610;DHT22;53468;48.276;14.416;2024-03-06T11:54:59;11.70;66.20
66610;DHT22;53468;48.276;14.416;2024-03-06T12:00:03;11.80;65.70
66610;DHT22;53468;48.276;14.416;2024-03-06T12:05:09;11.70;64.60
66610;DHT22;53468;48.276;14.416;2024-03-06T12:10:11;11.70;64.70
66610;DHT22;53468;48.276;14.416;2024-03-06T12:15:14;11.70;64.70
66610;DHT22;53468;48.276;14.416;2024-03-06T12:20:20;11.60;67.10
66610;DHT22;53468;48.276;14.416;2024-03-06T12:25:24;11.60;64.40
66610;DHT22;53468;48.276;14.416;2024-03-06T12:30:26;11.60;65.70
66610;DHT22;53468;48.276;14.416;2024-03-06T12:35:30;11.60;66.50
66610;DHT22;53468;48.276;14.416;2024-03-06T12:40:32;11.70;66.10
66610;DHT22;53468;48.276;14.416;2024-03-06T12:45:35;11.70;67.20
66610;DHT22;53468;48.276;14.416;2024-03-06T12:50:39;11.80;64.10
66610;DHT22;53468;48.276;14.416;2024-03-06T12:55:42;11.90;65.10
66610;DHT22;53468;48.276;14.416;2024-03-06T13:00:46;12.00;66.10
66610;DHT22;53468;48.276;14.416;2024-03-06T13:05:49;12.00;65.10
66610;DHT22;53468;48.276;14.416;2024-03-06T13:10:51;12.00;65.00
66610;DHT22;53468;48.276;14.416;2024-03-06T13:15:54;12.00;65.00
66610;DHT22;53468;48.276;14.416;2024-03-06T13:20:57;12.10;65.90
66610;DHT22;53468;48.276;14.416;2024-03-06T13:26:01;12.20;63.40
66610;DHT22;53468;48.276;14.416;2024-03-06T13:31:03;12.10;62.90
66610;DHT22;53468;48.276;14.416;2024-03-06T13:36:08;12.20;66.50
66610;DHT22;53468;48.276;14.416;2024-03-06T13:41:10;12.30;64.20
66610;DHT22;53468;48.276;14.416;2024-03-06T13:46:12;12.20;64.40
66610;DHT22;53468;48.276;14.416;2024-03-06T13:51:16;12.10;64.00
66610;DHT22;53468;48.276;14.416;2024-03-06T13:56:18;12.00;63.80
66610;DHT22;53468;48.276;14.416;2024-03-06T14:01:20;11.80;64.80
66610;DHT22;53468;48.276;14.416;2024-03-06T14:06:23;11.70;65.10
66610;DHT22;53468;48.276;14.416;2024-03-06T14:11:25;11.60;64.70
66610;DHT22;53468;48.276;14.416;2024-03-06T14:16:27;11.60;66.60
66610;DHT22;53468;48.276;14.416;2024-03-06T14:21:31;11.50;65.80
66610;DHT22;53468;48.276;14.416;2024-03-06T14:26:33;11.50;65.40
66610;DHT22;53468;48.276;14.416;2024-03-06T14:31:36;11.50;65.70
66610;DHT22;53468;48.276;14.416;2024-03-06T14:36:39;11.40;65.60
66610;DHT22;53468;48.276;14.416;2024-03-06T14:41:42;11.20;65.00
66610;DHT22;53468;48.276;14.416;2024-03-06T14:46:46;11.20;68.10
66610;DHT22;53468;48.276;14.416;2024-03-06T14:51:50;11.10;67.80
66610;DHT22;53468;48.276;14.416;2024-03-06T14:56:52;11.10;67.20
66610;DHT22;53468;48.276;14.416;2024-03-06T15:01:54;11.10;69.10
66610;DHT22;53468;48.276;14.416;2024-03-06T15:06:59;11.10;68.10
66610;DHT22;53468;48.276;14.416;2024-03-06T15:12:01;11.10;66.30
66610;DHT22;53468;48.276;14.416;2024-03-06T15:17:05;11.00;67.00
66610;DHT22;53468;48.276;14.416;2024-03-06T15:22:08;11.00;67.60
66610;DHT22;53468;48.276;14.416;2024-03-06T15:27:11;10.90;65.10
66610;DHT22;53468;48.276;14.416;2024-03-06T15:32:15;10.70;65.90
66610;DHT22;53468;48.276;14.416;2024-03-06T15:37:19;10.50;66.70
66610;DHT22;53468;48.276;14.416;2024-03-06T15:42:23;10.40;66.00
66610;DHT22;53468;48.276;14.416;2024-03-06T15:47:25;10.30;66.80
66610;DHT22;53468;48.276;14.416;2024-03-06T15:52:30;10.30;67.40
66610;DHT22;53468;48.276;14.416;2024-03-06T15:57:32;10.20;68.10
66610;DHT22;53468;48.276;14.416;2024-03-06T16:02:34;10.20;70.80
66610;DHT22;53468;48.276;14.416;2024-03-06T16:07:38;10.20;71.90
66610;DHT22;53468;48.276;14.416;2024-03-06T16:12:40;10.10;71.10
66610;DHT22;53468;48.276;14.416;2024-03-06T16:17:42;10.00;72.10
66610;DHT22;53468;48.276;14.416;2024-03-06T16:22:46;10.00;72.60
66610;DHT22;53468;48.276;14.416;2024-03-06T16:27:48;9.90;71.20
66610;DHT22;53468;48.276;14.416;2024-03-06T16:32:50;9.90;73.70
66610;DHT22;53468;48.276;14.416;2024-03-06T16:37:54;9.70;72.50
66610;DHT22;53468;48.276;14.416;2024-03-06T16:42:56;9.70;70.60
66610;DHT22;53468;48.276;14.416;2024-03-06T16:47:58;9.70;70.40
66610;DHT22;53468;48.276;14.416;2024-03-06T16:53:02;9.70;74.00
66610;DHT22;53468;48.276;14.416;2024-03-06T16:58:07;9.60;72.20
66610;DHT22;53468;48.276;14.416;2024-03-06T17:03:09;9.60;71.80
66610;DHT22;53468;48.276;14.416;2024-03-06T17:08:13;9.50;72.40
66610;DHT22;53468;48.276;14.416;2024-03-06T17:18:17;9.40;76.50
66610;DHT22;53468;48.276;14.416;2024-03-06T17:23:21;9.40;74.50
66610;DHT22;53468;48.276;14.416;2024-03-06T17:28:24;9.30;76.90
66610;DHT22;53468;48.276;14.416;2024-03-06T17:33:26;9.20;75.80
66610;DHT22;53468;48.276;14.416;2024-03-06T17:38:30;9.20;73.70
66610;DHT22;53468;48.276;14.416;2024-03-06T17:43:32;9.20;75.10
66610;DHT22;53468;48.276;14.416;2024-03-06T17:48:34;9.20;74.80
66610;DHT22;53468;48.276;14.416;2024-03-06T17:53:37;9.20;74.70
66610;DHT22;53468;48.276;14.416;2024-03-06T17:58:39;9.10;76.60
66610;DHT22;53468;48.276;14.416;2024-03-06T18:03:41;9.10;75.50
66610;DHT22;53468;48.276;14.416;2024-03-06T18:08:45;9.10;75.60
66610;DHT22;53468;48.276;14.416;2024-03-06T18:13:47;9.10;75.40
66610;DHT22;53468;48.276;14.416;2024-03-06T18:18:50;9.10;75.60
66610;DHT22;53468;48.276;14.416;2024-03-06T18:23:53;9.10;76.20
66610;DHT22;53468;48.276;14.416;2024-03-06T18:28:55;9.10;76.10
66610;DHT22;53468;48.276;14.416;2024-03-06T18:33:58;9.00;76.50
66610;DHT22;53468;48.276;14.416;2024-03-06T18:39:02;9.00;75.60
66610;DHT22;53468;48.276;14.416;2024-03-06T18:44:05;9.00;75.60
66610;DHT22;53468;48.276;14.416;2024-03-06T18:49:07;9.00;75.70
66610;DHT22;53468;48.276;14.416;2024-03-06T18:54:11;9.00;78.20
66610;DHT22;53468;48.276;14.416;2024-03-06T18:59:13;8.90;76.10
66610;DHT22;53468;48.276;14.416;2024-03-06T19:04:15;8.90;76.40
66610;DHT22;53468;48.276;14.416;2024-03-06T19:09:20;8.90;77.90
66610;DHT22;53468;48.276;14.416;2024-03-06T19:14:22;8.90;77.60
66610;DHT22;53468;48.276;14.416;2024-03-06T19:19:25;8.80;75.60
66610;DHT22;53468;48.276;14.416;2024-03-06T19:24:30;8.80;78.20
66610;DHT22;53468;48.276;14.416;2024-03-06T19:29:32;8.70;78.00
66610;DHT22;53468;48.276;14.416;2024-03-06T19:34:34;8.70;76.10
66610;DHT22;53468;48.276;14.416;2024-03-06T19:39:38;8.70;75.70
66610;DHT22;53468;48.276;14.416;2024-03-06T19:44:40;8.70;77.00
66610;DHT22;53468;48.276;14.416;2024-03-06T19:49:42;8.60;75.00
66610;DHT22;53468;48.276;14.416;2024-03-06T19:54:48;8.60;75.90
66610;DHT22;53468;48.276;14.416;2024-03-06T19:59:51;8.60;75.70
66610;DHT22;53468;48.276;14.416;2024-03-06T20:04:55;8.60;76.80
66610;DHT22;53468;48.276;14.416;2024-03-06T20:09:59;8.50;75.50
66610;DHT22;53468;48.276;14.416;2024-03-06T20:15:02;8.50;77.40
66610;DHT22;53468;48.276;14.416;2024-03-06T20:20:06;8.50;75.70
66610;DHT22;53468;48.276;14.416;2024-03-06T20:25:13;8.40;76.00
66610;DHT22;53468;48.276;14.416;2024-03-06T20:30:18;8.40;76.80
66610;DHT22;53468;48.276;14.416;2024-03-06T20:35:21;8.30;77.10
66610;DHT22;53468;48.276;14.416;2024-03-06T20:40:25;8.40;78.40
66610;DHT22;53468;48.276;14.416;2024-03-06T20:45:29;8.30;79.50
66610;DHT22;53468;48.276;14.416;2024-03-06T20:50:31;8.20;79.30
66610;DHT22;53468;48.276;14.416;2024-03-06T20:55:34;8.20;80.30
66610;DHT22;53468;48.276;14.416;2024-03-06T21:00:36;8.20;80.80
66610;DHT22;53468;48.276;14.416;2024-03-06T21:05:38;8.10;81.20
66610;DHT22;53468;48.276;14.416;2024-03-06T21:10:42;8.00;80.40
66610;DHT22;53468;48.276;14.416;2024-03-06T21:15:44;7.90;81.40
66610;DHT22;53468;48.276;14.416;2024-03-06T21:20:46;7.80;81.30
66610;DHT22;53468;48.276;14.416;2024-03-06T21:25:50;7.80;81.70
66610;DHT22;53468;48.276;14.416;2024-03-06T21:30:52;7.70;82.60
66610;DHT22;53468;48.276;14.416;2024-03-06T21:35:54;7.70;82.20
66610;DHT22;53468;48.276;14.416;2024-03-06T21:40:58;7.70;83.80
66610;DHT22;53468;48.276;14.416;2024-03-06T21:46:02;7.60;84.80
66610;DHT22;53468;48.276;14.416;2024-03-06T21:51:04;7.60;85.20
66610;DHT22;53468;48.276;14.416;2024-03-06T21:56:08;7.60;85.20
66610;DHT22;53468;48.276;14.416;2024-03-06T22:01:11;7.60;86.20
66610;DHT22;53468;48.276;14.416;2024-03-06T22:06:13;7.60;87.20
66610;DHT22;53468;48.276;14.416;2024-03-06T22:11:17;7.50;87.80
66610;DHT22;53468;48.276;14.416;2024-03-06T22:16:19;7.50;88.40
66610;DHT22;53468;48.276;14.416;2024-03-06T22:21:21;7.40;88.00
66610;DHT22;53468;48.276;14.416;2024-03-06T22:26:24;7.40;89.00
66610;DHT22;53468;48.276;14.416;2024-03-06T22:31:26;7.30;90.00
66610;DHT22;53468;48.276;14.416;2024-03-06T22:36:28;7.30;89.40
66610;DHT22;53468;48.276;14.416;2024-03-06T22:41:32;7.20;89.80
66610;DHT22;53468;48.276;14.416;2024-03-06T22:46:36;7.20;90.00
66610;DHT22;53468;48.276;14.416;2024-03-06T22:51:38;7.10;90.20
66610;DHT22;53468;48.276;14.416;2024-03-06T22:56:41;7.00;90.70
66610;DHT22;53468;48.276;14.416;2024-03-06T23:01:43;7.00;84.10
66610;DHT22;53468;48.276;14.416;2024-03-06T23:06:45;7.00;88.40
66610;DHT22;53468;48.276;14.416;2024-03-06T23:11:49;7.00;87.60
66610;DHT22;53468;48.276;14.416;2024-03-06T23:16:51;7.00;86.60
66610;DHT22;53468;48.276;14.416;2024-03-06T23:21:53;7.00;85.10
66610;DHT22;53468;48.276;14.416;2024-03-06T23:26:58;7.00;84.50
66610;DHT22;53468;48.276;14.416;2024-03-06T23:32:00;7.00;84.30
66610;DHT22;53468;48.276;14.416;2024-03-06T23:37:03;6.90;84.90
66610;DHT22;53468;48.276;14.416;2024-03-06T23:42:06;6.90;85.40
66610;DHT22;53468;48.276;14.416;2024-03-06T23:47:08;6.80;85.30
66610;DHT22;53468;48.276;14.416;2024-03-06T23:52:10;6.60;84.30
66610;DHT22;53468;48.276;14.416;2024-03-06T23:57:17;6.50;84.30
